sensor_id;sensor_type;location;lat;lon;timestamp;P1;durP1;ratioP1;P2;durP2;ratioP2
54235;SDS011;40151;43.606;1.472;2023-05-21T00:00:44;4.25;;;2.53;;
54235;SDS011;40151;43.606;1.472;2023-05-21T00:03:09;3.67;;;2.22;;
54235;SDS011;40151;43.606;1.472;2023-05-21T00:05:40;3.28;;;2.00;;
54235;SDS011;40151;43.606;1.472;2023-05-21T00:08:06;3.92;;;1.90;;
54235;SDS011;40151;43.606;1.472;2023-05-21T00:10:32;3.40;;;2.03;;
54235;SDS011;40151;43.606;1.472;2023-05-21T00:12:57;4.53;;;2.47;;
54235;SDS011;40151;43.606;1.472;2023-05-21T00:15:23;4.00;;;2.38;;
54235;SDS011;40151;43.606;1.472;2023-05-21T00:17:48;3.53;;;2.30;;
54235;SDS011;40151;43.606;1.472;2023-05-21T00:20:13;3.60;;;2.33;;
54235;SDS011;40151;43.606;1.472;2023-05-21T00:22:40;3.55;;;2.50;;
54235;SDS011;40151;43.606;1.472;2023-05-21T00:25:08;4.32;;;2.50;;
54235;SDS011;40151;43.606;1.472;2023-05-21T00:27:35;5.07;;;2.53;;
54235;SDS011;40151;43.606;1.472;2023-05-21T00:30:01;3.95;;;2.55;;
54235;SDS011;40151;43.606;1.472;2023-05-21T00:32:27;4.32;;;2.35;;
54235;SDS011;40151;43.606;1.472;2023-05-21T00:34:52;3.13;;;2.20;;
54235;SDS011;40151;43.606;1.472;2023-05-21T00:37:18;2.90;;;1.98;;
54235;SDS011;40151;43.606;1.472;2023-05-21T00:39:44;3.67;;;2.20;;
54235;SDS011;40151;43.606;1.472;2023-05-21T00:42:10;3.33;;;2.00;;
54235;SDS011;40151;43.606;1.472;2023-05-21T00:44:36;3.75;;;2.20;;
54235;SDS011;40151;43.606;1.472;2023-05-21T00:47:02;4.22;;;2.15;;
54235;SDS011;40151;43.606;1.472;2023-05-21T00:49:30;4.07;;;2.30;;
54235;SDS011;40151;43.606;1.472;2023-05-21T00:51:56;3.17;;;2.20;;
54235;SDS011;40151;43.606;1.472;2023-05-21T00:54:22;2.97;;;1.92;;
54235;SDS011;40151;43.606;1.472;2023-05-21T00:56:48;3.50;;;2.50;;
54235;SDS011;40151;43.606;1.472;2023-05-21T00:59:15;4.28;;;2.78;;
54235;SDS011;40151;43.606;1.472;2023-05-21T01:01:42;3.40;;;2.17;;
54235;SDS011;40151;43.606;1.472;2023-05-21T01:04:09;3.35;;;2.13;;
54235;SDS011;40151;43.606;1.472;2023-05-21T01:06:35;4.85;;;2.88;;
54235;SDS011;40151;43.606;1.472;2023-05-21T01:09:02;3.00;;;2.05;;
54235;SDS011;40151;43.606;1.472;2023-05-21T01:11:50;4.13;;;2.58;;
54235;SDS011;40151;43.606;1.472;2023-05-21T01:14:16;2.65;;;2.00;;
54235;SDS011;40151;43.606;1.472;2023-05-21T01:16:43;3.13;;;1.92;;
54235;SDS011;40151;43.606;1.472;2023-05-21T01:19:13;3.38;;;2.05;;
54235;SDS011;40151;43.606;1.472;2023-05-21T01:21:41;3.53;;;2.30;;
54235;SDS011;40151;43.606;1.472;2023-05-21T01:24:10;3.97;;;2.53;;
54235;SDS011;40151;43.606;1.472;2023-05-21T01:26:35;3.22;;;2.30;;
54235;SDS011;40151;43.606;1.472;2023-05-21T01:29:06;3.92;;;2.20;;
54235;SDS011;40151;43.606;1.472;2023-05-21T01:31:46;3.50;;;2.20;;
54235;SDS011;40151;43.606;1.472;2023-05-21T01:34:21;2.97;;;2.10;;
54235;SDS011;40151;43.606;1.472;2023-05-21T01:39:50;4.50;;;2.13;;
54235;SDS011;40151;43.606;1.472;2023-05-21T01:42:19;3.78;;;2.40;;
54235;SDS011;40151;43.606;1.472;2023-05-21T01:44:48;4.13;;;2.70;;
54235;SDS011;40151;43.606;1.472;2023-05-21T01:47:16;4.40;;;2.50;;
54235;SDS011;40151;43.606;1.472;2023-05-21T01:49:42;3.13;;;2.22;;
54235;SDS011;40151;43.606;1.472;2023-05-21T01:52:08;5.13;;;2.30;;
54235;SDS011;40151;43.606;1.472;2023-05-21T01:54:34;3.58;;;2.08;;
54235;SDS011;40151;43.606;1.472;2023-05-21T01:56:59;3.60;;;2.40;;
54235;SDS011;40151;43.606;1.472;2023-05-21T01:59:25;3.60;;;2.45;;
54235;SDS011;40151;43.606;1.472;2023-05-21T02:01:51;3.95;;;2.55;;
54235;SDS011;40151;43.606;1.472;2023-05-21T02:04:17;3.45;;;2.30;;
54235;SDS011;40151;43.606;1.472;2023-05-21T02:06:42;4.03;;;2.35;;
54235;SDS011;40151;43.606;1.472;2023-05-21T02:09:08;4.22;;;2.58;;
54235;SDS011;40151;43.606;1.472;2023-05-21T02:11:33;2.78;;;1.90;;
54235;SDS011;40151;43.606;1.472;2023-05-21T02:13:59;2.80;;;2.00;;
54235;SDS011;40151;43.606;1.472;2023-05-21T02:16:24;3.53;;;1.92;;
54235;SDS011;40151;43.606;1.472;2023-05-21T02:18:50;3.95;;;2.40;;
54235;SDS011;40151;43.606;1.472;2023-05-21T02:21:17;4.47;;;2.45;;
54235;SDS011;40151;43.606;1.472;2023-05-21T02:23:44;3.80;;;2.30;;
54235;SDS011;40151;43.606;1.472;2023-05-21T02:26:10;3.47;;;2.13;;
54235;SDS011;40151;43.606;1.472;2023-05-21T02:28:35;3.13;;;2.15;;
54235;SDS011;40151;43.606;1.472;2023-05-21T02:31:01;3.80;;;2.47;;
54235;SDS011;40151;43.606;1.472;2023-05-21T02:33:26;3.03;;;2.25;;
54235;SDS011;40151;43.606;1.472;2023-05-21T02:35:51;2.63;;;1.95;;
54235;SDS011;40151;43.606;1.472;2023-05-21T02:38:17;3.55;;;2.38;;
54235;SDS011;40151;43.606;1.472;2023-05-21T02:40:44;3.83;;;2.30;;
54235;SDS011;40151;43.606;1.472;2023-05-21T02:43:10;3.63;;;2.10;;
54235;SDS011;40151;43.606;1.472;2023-05-21T02:45:35;4.07;;;2.50;;
54235;SDS011;40151;43.606;1.472;2023-05-21T02:48:00;4.32;;;2.55;;
54235;SDS011;40151;43.606;1.472;2023-05-21T02:50:26;3.63;;;2.40;;
54235;SDS011;40151;43.606;1.472;2023-05-21T02:52:51;4.07;;;2.38;;
54235;SDS011;40151;43.606;1.472;2023-05-21T02:55:17;3.30;;;2.40;;
54235;SDS011;40151;43.606;1.472;2023-05-21T02:57:42;2.80;;;2.00;;
54235;SDS011;40151;43.606;1.472;2023-05-21T03:00:07;3.72;;;2.20;;
54235;SDS011;40151;43.606;1.472;2023-05-21T03:02:34;3.42;;;2.25;;
54235;SDS011;40151;43.606;1.472;2023-05-21T03:05:00;3.22;;;2.25;;
54235;SDS011;40151;43.606;1.472;2023-05-21T03:07:25;3.28;;;2.00;;
54235;SDS011;40151;43.606;1.472;2023-05-21T03:09:51;3.90;;;2.45;;
54235;SDS011;40151;43.606;1.472;2023-05-21T03:12:16;3.88;;;2.20;;
54235;SDS011;40151;43.606;1.472;2023-05-21T03:14:41;3.45;;;2.22;;
54235;SDS011;40151;43.606;1.472;2023-05-21T03:17:08;3.58;;;2.25;;
54235;SDS011;40151;43.606;1.472;2023-05-21T03:19:37;3.35;;;2.25;;
54235;SDS011;40151;43.606;1.472;2023-05-21T03:22:06;2.85;;;2.00;;
54235;SDS011;40151;43.606;1.472;2023-05-21T03:24:31;3.63;;;2.50;;
54235;SDS011;40151;43.606;1.472;2023-05-21T03:27:00;3.80;;;2.30;;
54235;SDS011;40151;43.606;1.472;2023-05-21T03:29:25;4.32;;;2.40;;
54235;SDS011;40151;43.606;1.472;2023-05-21T03:31:51;3.30;;;2.00;;
54235;SDS011;40151;43.606;1.472;2023-05-21T03:34:20;3.95;;;2.40;;
54235;SDS011;40151;43.606;1.472;2023-05-21T03:36:46;3.20;;;2.40;;
54235;SDS011;40151;43.606;1.472;2023-05-21T03:39:12;3.78;;;2.25;;
54235;SDS011;40151;43.606;1.472;2023-05-21T03:41:37;3.50;;;2.22;;
54235;SDS011;40151;43.606;1.472;2023-05-21T03:44:03;3.58;;;2.25;;
54235;SDS011;40151;43.606;1.472;2023-05-21T03:46:29;3.75;;;1.90;;
54235;SDS011;40151;43.606;1.472;2023-05-21T03:48:54;3.67;;;2.30;;
54235;SDS011;40151;43.606;1.472;2023-05-21T03:51:19;3.47;;;2.38;;
54235;SDS011;40151;43.606;1.472;2023-05-21T03:53:45;3.60;;;2.42;;
54235;SDS011;40151;43.606;1.472;2023-05-21T03:56:10;3.63;;;2.17;;
54235;SDS011;40151;43.606;1.472;2023-05-21T03:58:36;3.90;;;2.30;;
54235;SDS011;40151;43.606;1.472;2023-05-21T04:01:02;3.28;;;2.30;;
54235;SDS011;40151;43.606;1.472;2023-05-21T04:03:28;3.40;;;2.40;;
54235;SDS011;40151;43.606;1.472;2023-05-21T04:05:54;3.15;;;1.90;;
54235;SDS011;40151;43.606;1.472;2023-05-21T04:08:20;4.43;;;2.60;;
54235;SDS011;40151;43.606;1.472;2023-05-21T04:10:45;3.53;;;2.30;;
54235;SDS011;40151;43.606;1.472;2023-05-21T04:13:11;3.00;;;2.00;;
54235;SDS011;40151;43.606;1.472;2023-05-21T04:15:36;3.67;;;2.47;;
54235;SDS011;40151;43.606;1.472;2023-05-21T04:18:02;4.10;;;2.50;;
54235;SDS011;40151;43.606;1.472;2023-05-21T04:20:28;3.70;;;2.60;;
54235;SDS011;40151;43.606;1.472;2023-05-21T04:22:54;2.97;;;2.13;;
54235;SDS011;40151;43.606;1.472;2023-05-21T04:25:19;4.57;;;2.42;;
54235;SDS011;40151;43.606;1.472;2023-05-21T04:27:47;3.20;;;2.30;;
54235;SDS011;40151;43.606;1.472;2023-05-21T04:30:13;4.00;;;2.50;;
54235;SDS011;40151;43.606;1.472;2023-05-21T04:32:39;3.55;;;2.28;;
54235;SDS011;40151;43.606;1.472;2023-05-21T04:35:04;4.93;;;2.42;;
54235;SDS011;40151;43.606;1.472;2023-05-21T04:37:30;4.85;;;2.63;;
54235;SDS011;40151;43.606;1.472;2023-05-21T04:39:59;3.15;;;2.28;;
54235;SDS011;40151;43.606;1.472;2023-05-21T04:42:27;3.22;;;2.30;;
54235;SDS011;40151;43.606;1.472;2023-05-21T04:44:54;3.83;;;2.30;;
54235;SDS011;40151;43.606;1.472;2023-05-21T04:47:20;3.78;;;2.38;;
54235;SDS011;40151;43.606;1.472;2023-05-21T04:49:45;4.30;;;2.45;;
54235;SDS011;40151;43.606;1.472;2023-05-21T04:52:11;3.72;;;2.28;;
54235;SDS011;40151;43.606;1.472;2023-05-21T04:54:37;3.78;;;2.33;;
54235;SDS011;40151;43.606;1.472;2023-05-21T04:57:05;4.40;;;2.42;;
54235;SDS011;40151;43.606;1.472;2023-05-21T04:59:31;3.85;;;2.67;;
54235;SDS011;40151;43.606;1.472;2023-05-21T05:01:56;3.17;;;2.40;;
54235;SDS011;40151;43.606;1.472;2023-05-21T05:04:22;3.70;;;2.45;;
54235;SDS011;40151;43.606;1.472;2023-05-21T05:06:48;4.07;;;2.55;;
54235;SDS011;40151;43.606;1.472;2023-05-21T05:09:14;3.72;;;2.20;;
54235;SDS011;40151;43.606;1.472;2023-05-21T05:11:39;3.78;;;2.30;;
54235;SDS011;40151;43.606;1.472;2023-05-21T05:14:05;3.17;;;2.33;;
54235;SDS011;40151;43.606;1.472;2023-05-21T05:16:31;4.22;;;2.83;;
54235;SDS011;40151;43.606;1.472;2023-05-21T05:18:56;3.80;;;2.20;;
54235;SDS011;40151;43.606;1.472;2023-05-21T05:21:22;3.30;;;2.58;;
54235;SDS011;40151;43.606;1.472;2023-05-21T05:23:48;3.55;;;2.20;;
54235;SDS011;40151;43.606;1.472;2023-05-21T05:26:14;3.60;;;2.45;;
54235;SDS011;40151;43.606;1.472;2023-05-21T05:28:39;3.60;;;2.28;;
54235;SDS011;40151;43.606;1.472;2023-05-21T05:31:04;3.83;;;2.55;;
54235;SDS011;40151;43.606;1.472;2023-05-21T05:33:30;3.90;;;2.50;;
54235;SDS011;40151;43.606;1.472;2023-05-21T05:35:56;3.85;;;2.20;;
54235;SDS011;40151;43.606;1.472;2023-05-21T05:38:21;4.50;;;2.65;;
54235;SDS011;40151;43.606;1.472;2023-05-21T05:40:47;4.20;;;2.40;;
54235;SDS011;40151;43.606;1.472;2023-05-21T05:43:12;3.50;;;2.42;;
54235;SDS011;40151;43.606;1.472;2023-05-21T05:45:38;3.45;;;2.53;;
54235;SDS011;40151;43.606;1.472;2023-05-21T05:48:03;4.00;;;2.75;;
54235;SDS011;40151;43.606;1.472;2023-05-21T05:50:28;3.90;;;2.30;;
54235;SDS011;40151;43.606;1.472;2023-05-21T05:52:54;3.42;;;2.58;;
54235;SDS011;40151;43.606;1.472;2023-05-21T05:55:20;3.67;;;2.25;;
54235;SDS011;40151;43.606;1.472;2023-05-21T05:57:46;4.45;;;2.67;;
54235;SDS011;40151;43.606;1.472;2023-05-21T06:00:12;3.25;;;2.38;;
54235;SDS011;40151;43.606;1.472;2023-05-21T06:02:38;4.43;;;2.95;;
54235;SDS011;40151;43.606;1.472;2023-05-21T06:05:04;3.22;;;2.25;;
54235;SDS011;40151;43.606;1.472;2023-05-21T06:07:31;3.75;;;2.33;;
54235;SDS011;40151;43.606;1.472;2023-05-21T06:09:56;4.15;;;2.88;;
54235;SDS011;40151;43.606;1.472;2023-05-21T06:12:22;3.78;;;2.30;;
54235;SDS011;40151;43.606;1.472;2023-05-21T06:14:47;4.38;;;2.85;;
54235;SDS011;40151;43.606;1.472;2023-05-21T06:17:13;4.05;;;2.47;;
54235;SDS011;40151;43.606;1.472;2023-05-21T06:19:38;3.88;;;2.50;;
54235;SDS011;40151;43.606;1.472;2023-05-21T06:22:04;4.55;;;2.40;;
54235;SDS011;40151;43.606;1.472;2023-05-21T06:24:29;4.07;;;2.50;;
54235;SDS011;40151;43.606;1.472;2023-05-21T06:26:55;3.85;;;2.63;;
54235;SDS011;40151;43.606;1.472;2023-05-21T06:29:20;3.03;;;2.30;;
54235;SDS011;40151;43.606;1.472;2023-05-21T06:31:46;3.45;;;2.35;;
54235;SDS011;40151;43.606;1.472;2023-05-21T06:34:12;3.65;;;2.45;;
54235;SDS011;40151;43.606;1.472;2023-05-21T06:36:38;3.58;;;2.85;;
54235;SDS011;40151;43.606;1.472;2023-05-21T06:39:03;4.05;;;2.45;;
54235;SDS011;40151;43.606;1.472;2023-05-21T06:41:29;4.03;;;2.60;;
54235;SDS011;40151;43.606;1.472;2023-05-21T06:43:54;4.32;;;2.63;;
54235;SDS011;40151;43.606;1.472;2023-05-21T06:46:20;3.75;;;2.67;;
54235;SDS011;40151;43.606;1.472;2023-05-21T06:48:46;4.38;;;2.80;;
54235;SDS011;40151;43.606;1.472;2023-05-21T06:51:11;3.63;;;2.60;;
54235;SDS011;40151;43.606;1.472;2023-05-21T06:53:37;3.80;;;2.65;;
54235;SDS011;40151;43.606;1.472;2023-05-21T06:56:02;3.60;;;2.47;;
54235;SDS011;40151;43.606;1.472;2023-05-21T06:58:28;4.00;;;2.60;;
54235;SDS011;40151;43.606;1.472;2023-05-21T07:00:58;4.07;;;2.70;;
54235;SDS011;40151;43.606;1.472;2023-05-21T07:03:23;3.10;;;2.40;;
54235;SDS011;40151;43.606;1.472;2023-05-21T07:05:49;4.75;;;2.80;;
54235;SDS011;40151;43.606;1.472;2023-05-21T07:08:14;5.00;;;2.72;;
54235;SDS011;40151;43.606;1.472;2023-05-21T07:10:39;4.22;;;2.70;;
54235;SDS011;40151;43.606;1.472;2023-05-21T07:13:06;3.70;;;2.60;;
54235;SDS011;40151;43.606;1.472;2023-05-21T07:15:31;5.05;;;2.60;;
54235;SDS011;40151;43.606;1.472;2023-05-21T07:17:57;3.90;;;2.60;;
54235;SDS011;40151;43.606;1.472;2023-05-21T07:20:22;4.68;;;2.42;;
54235;SDS011;40151;43.606;1.472;2023-05-21T07:22:47;4.55;;;2.70;;
54235;SDS011;40151;43.606;1.472;2023-05-21T07:25:13;4.30;;;2.70;;
54235;SDS011;40151;43.606;1.472;2023-05-21T07:27:38;4.10;;;2.80;;
54235;SDS011;40151;43.606;1.472;2023-05-21T07:30:05;4.30;;;2.50;;
54235;SDS011;40151;43.606;1.472;2023-05-21T07:32:31;4.75;;;2.80;;
54235;SDS011;40151;43.606;1.472;2023-05-21T07:34:58;4.30;;;2.40;;
54235;SDS011;40151;43.606;1.472;2023-05-21T07:37:25;3.70;;;2.53;;
54235;SDS011;40151;43.606;1.472;2023-05-21T07:39:51;4.80;;;2.97;;
54235;SDS011;40151;43.606;1.472;2023-05-21T07:42:17;3.22;;;2.60;;
54235;SDS011;40151;43.606;1.472;2023-05-21T07:44:43;4.78;;;2.88;;
54235;SDS011;40151;43.606;1.472;2023-05-21T07:47:08;4.78;;;2.80;;
54235;SDS011;40151;43.606;1.472;2023-05-21T07:49:34;4.20;;;3.03;;
54235;SDS011;40151;43.606;1.472;2023-05-21T07:51:59;4.57;;;3.05;;
54235;SDS011;40151;43.606;1.472;2023-05-21T07:54:25;5.32;;;2.90;;
54235;SDS011;40151;43.606;1.472;2023-05-21T07:56:50;4.82;;;2.85;;
54235;SDS011;40151;43.606;1.472;2023-05-21T07:59:15;4.78;;;3.00;;
54235;SDS011;40151;43.606;1.472;2023-05-21T08:01:41;5.18;;;2.83;;
54235;SDS011;40151;43.606;1.472;2023-05-21T08:04:07;3.92;;;2.78;;
54235;SDS011;40151;43.606;1.472;2023-05-21T08:06:33;5.35;;;3.25;;
54235;SDS011;40151;43.606;1.472;2023-05-21T08:09:02;4.85;;;2.65;;
54235;SDS011;40151;43.606;1.472;2023-05-21T08:11:27;4.95;;;2.80;;
54235;SDS011;40151;43.606;1.472;2023-05-21T08:13:53;4.35;;;2.90;;
54235;SDS011;40151;43.606;1.472;2023-05-21T08:16:19;4.88;;;2.75;;
54235;SDS011;40151;43.606;1.472;2023-05-21T08:18:45;3.95;;;2.78;;
54235;SDS011;40151;43.606;1.472;2023-05-21T08:21:10;5.00;;;2.80;;
54235;SDS011;40151;43.606;1.472;2023-05-21T08:23:36;3.85;;;2.78;;
54235;SDS011;40151;43.606;1.472;2023-05-21T08:26:02;5.32;;;2.95;;
54235;SDS011;40151;43.606;1.472;2023-05-21T08:28:27;4.97;;;2.95;;
54235;SDS011;40151;43.606;1.472;2023-05-21T08:30:54;4.53;;;3.20;;
54235;SDS011;40151;43.606;1.472;2023-05-21T08:33:19;4.75;;;3.20;;
54235;SDS011;40151;43.606;1.472;2023-05-21T08:35:44;6.10;;;3.10;;
54235;SDS011;40151;43.606;1.472;2023-05-21T08:38:10;5.15;;;2.95;;
54235;SDS011;40151;43.606;1.472;2023-05-21T08:40:35;5.63;;;3.40;;
54235;SDS011;40151;43.606;1.472;2023-05-21T08:43:01;4.50;;;3.05;;
54235;SDS011;40151;43.606;1.472;2023-05-21T08:45:26;4.47;;;2.85;;
54235;SDS011;40151;43.606;1.472;2023-05-21T08:48:01;4.43;;;2.75;;
54235;SDS011;40151;43.606;1.472;2023-05-21T08:50:27;5.05;;;3.00;;
54235;SDS011;40151;43.606;1.472;2023-05-21T08:52:53;4.85;;;3.10;;
54235;SDS011;40151;43.606;1.472;2023-05-21T08:55:22;4.28;;;2.92;;
54235;SDS011;40151;43.606;1.472;2023-05-21T08:57:48;4.47;;;3.03;;
54235;SDS011;40151;43.606;1.472;2023-05-21T09:00:14;4.47;;;2.60;;
54235;SDS011;40151;43.606;1.472;2023-05-21T09:02:40;5.85;;;3.40;;
54235;SDS011;40151;43.606;1.472;2023-05-21T09:05:08;4.32;;;2.97;;
54235;SDS011;40151;43.606;1.472;2023-05-21T09:07:37;4.90;;;3.47;;
54235;SDS011;40151;43.606;1.472;2023-05-21T09:10:07;4.30;;;3.25;;
54235;SDS011;40151;43.606;1.472;2023-05-21T09:12:36;5.22;;;3.42;;
54235;SDS011;40151;43.606;1.472;2023-05-21T09:15:02;4.68;;;3.03;;
54235;SDS011;40151;43.606;1.472;2023-05-21T09:17:29;4.90;;;3.15;;
54235;SDS011;40151;43.606;1.472;2023-05-21T09:22:34;4.65;;;3.08;;
54235;SDS011;40151;43.606;1.472;2023-05-21T09:25:03;4.30;;;2.70;;
54235;SDS011;40151;43.606;1.472;2023-05-21T09:27:28;3.50;;;2.33;;
54235;SDS011;40151;43.606;1.472;2023-05-21T09:29:54;4.38;;;2.95;;
54235;SDS011;40151;43.606;1.472;2023-05-21T09:32:19;4.45;;;2.90;;
54235;SDS011;40151;43.606;1.472;2023-05-21T09:34:46;4.00;;;2.97;;
54235;SDS011;40151;43.606;1.472;2023-05-21T09:37:11;4.18;;;2.83;;
54235;SDS011;40151;43.606;1.472;2023-05-21T09:39:39;4.18;;;3.10;;
54235;SDS011;40151;43.606;1.472;2023-05-21T09:42:05;4.20;;;2.80;;
54235;SDS011;40151;43.606;1.472;2023-05-21T09:44:30;4.60;;;3.10;;
54235;SDS011;40151;43.606;1.472;2023-05-21T09:46:56;4.40;;;3.05;;
54235;SDS011;40151;43.606;1.472;2023-05-21T09:49:23;3.90;;;3.00;;
54235;SDS011;40151;43.606;1.472;2023-05-21T09:51:54;4.55;;;3.00;;
54235;SDS011;40151;43.606;1.472;2023-05-21T09:54:23;4.30;;;3.00;;
54235;SDS011;40151;43.606;1.472;2023-05-21T09:56:50;4.47;;;2.95;;
54235;SDS011;40151;43.606;1.472;2023-05-21T09:59:18;4.55;;;3.08;;
54235;SDS011;40151;43.606;1.472;2023-05-21T10:01:45;3.88;;;2.83;;
54235;SDS011;40151;43.606;1.472;2023-05-21T10:04:10;6.35;;;3.10;;
54235;SDS011;40151;43.606;1.472;2023-05-21T10:06:39;4.82;;;3.15;;
54235;SDS011;40151;43.606;1.472;2023-05-21T10:09:08;4.70;;;2.90;;
54235;SDS011;40151;43.606;1.472;2023-05-21T10:11:34;5.55;;;3.08;;
54235;SDS011;40151;43.606;1.472;2023-05-21T10:14:04;4.60;;;3.08;;
54235;SDS011;40151;43.606;1.472;2023-05-21T10:16:40;4.85;;;3.30;;
54235;SDS011;40151;43.606;1.472;2023-05-21T10:19:06;4.28;;;2.95;;
54235;SDS011;40151;43.606;1.472;2023-05-21T10:21:36;4.30;;;2.83;;
54235;SDS011;40151;43.606;1.472;2023-05-21T10:24:03;4.50;;;3.00;;
54235;SDS011;40151;43.606;1.472;2023-05-21T10:26:30;4.60;;;3.13;;
54235;SDS011;40151;43.606;1.472;2023-05-21T10:28:57;4.68;;;3.00;;
54235;SDS011;40151;43.606;1.472;2023-05-21T10:31:24;4.75;;;2.90;;
54235;SDS011;40151;43.606;1.472;2023-05-21T10:33:52;5.38;;;3.00;;
54235;SDS011;40151;43.606;1.472;2023-05-21T10:36:17;5.65;;;3.20;;
54235;SDS011;40151;43.606;1.472;2023-05-21T10:38:44;4.78;;;3.30;;
54235;SDS011;40151;43.606;1.472;2023-05-21T10:41:11;4.97;;;3.20;;
54235;SDS011;40151;43.606;1.472;2023-05-21T10:43:47;5.00;;;3.13;;
54235;SDS011;40151;43.606;1.472;2023-05-21T11:02:06;4.25;;;2.75;;
54235;SDS011;40151;43.606;1.472;2023-05-21T11:04:33;5.20;;;3.03;;
54235;SDS011;40151;43.606;1.472;2023-05-21T11:07:03;4.35;;;2.95;;
54235;SDS011;40151;43.606;1.472;2023-05-21T11:09:29;4.97;;;3.20;;
54235;SDS011;40151;43.606;1.472;2023-05-21T11:11:58;5.65;;;3.00;;
54235;SDS011;40151;43.606;1.472;2023-05-21T11:19:33;4.78;;;3.05;;
54235;SDS011;40151;43.606;1.472;2023-05-21T11:22:44;5.70;;;3.85;;
54235;SDS011;40151;43.606;1.472;2023-05-21T11:24:51;5.18;;;3.40;;
54235;SDS011;40151;43.606;1.472;2023-05-21T11:27:29;4.55;;;3.08;;
54235;SDS011;40151;43.606;1.472;2023-05-21T11:29:57;4.40;;;3.13;;
54235;SDS011;40151;43.606;1.472;2023-05-21T11:32:23;5.78;;;3.65;;
54235;SDS011;40151;43.606;1.472;2023-05-21T11:34:49;5.53;;;3.70;;
54235;SDS011;40151;43.606;1.472;2023-05-21T11:39:51;5.60;;;3.80;;
54235;SDS011;40151;43.606;1.472;2023-05-21T11:42:33;4.75;;;3.40;;
54235;SDS011;40151;43.606;1.472;2023-05-21T11:45:02;4.75;;;3.38;;
54235;SDS011;40151;43.606;1.472;2023-05-21T11:47:29;5.32;;;3.60;;
54235;SDS011;40151;43.606;1.472;2023-05-21T11:49:56;5.00;;;3.95;;
54235;SDS011;40151;43.606;1.472;2023-05-21T11:52:23;5.20;;;3.22;;
54235;SDS011;40151;43.606;1.472;2023-05-21T11:54:51;5.97;;;3.65;;
54235;SDS011;40151;43.606;1.472;2023-05-21T11:57:22;5.35;;;3.70;;
54235;SDS011;40151;43.606;1.472;2023-05-21T11:59:50;5.40;;;3.88;;
54235;SDS011;40151;43.606;1.472;2023-05-21T12:02:20;6.00;;;3.70;;
54235;SDS011;40151;43.606;1.472;2023-05-21T12:04:46;5.65;;;3.55;;
54235;SDS011;40151;43.606;1.472;2023-05-21T12:07:13;5.45;;;3.38;;
54235;SDS011;40151;43.606;1.472;2023-05-21T12:09:48;5.65;;;3.60;;
54235;SDS011;40151;43.606;1.472;2023-05-21T12:12:15;5.30;;;3.67;;
54235;SDS011;40151;43.606;1.472;2023-05-21T12:14:43;5.93;;;3.83;;
54235;SDS011;40151;43.606;1.472;2023-05-21T12:17:10;6.55;;;4.20;;
54235;SDS011;40151;43.606;1.472;2023-05-21T12:19:37;5.55;;;4.10;;
54235;SDS011;40151;43.606;1.472;2023-05-21T12:22:03;5.40;;;3.75;;
54235;SDS011;40151;43.606;1.472;2023-05-21T12:24:29;5.13;;;3.67;;
54235;SDS011;40151;43.606;1.472;2023-05-21T12:26:58;6.93;;;4.15;;
54235;SDS011;40151;43.606;1.472;2023-05-21T12:29:29;6.45;;;4.47;;
54235;SDS011;40151;43.606;1.472;2023-05-21T12:31:59;5.53;;;3.55;;
54235;SDS011;40151;43.606;1.472;2023-05-21T12:37:19;5.65;;;3.90;;
54235;SDS011;40151;43.606;1.472;2023-05-21T12:39:47;5.68;;;3.90;;
54235;SDS011;40151;43.606;1.472;2023-05-21T12:42:14;5.53;;;3.70;;
54235;SDS011;40151;43.606;1.472;2023-05-21T12:44:43;6.30;;;3.65;;
54235;SDS011;40151;43.606;1.472;2023-05-21T12:47:10;5.85;;;4.03;;
54235;SDS011;40151;43.606;1.472;2023-05-21T12:49:37;5.78;;;3.90;;
54235;SDS011;40151;43.606;1.472;2023-05-21T12:52:08;5.78;;;4.00;;
54235;SDS011;40151;43.606;1.472;2023-05-21T12:54:36;5.45;;;3.83;;
54235;SDS011;40151;43.606;1.472;2023-05-21T12:57:09;6.75;;;3.55;;
54235;SDS011;40151;43.606;1.472;2023-05-21T12:59:58;6.05;;;4.20;;
54235;SDS011;40151;43.606;1.472;2023-05-21T13:02:25;6.88;;;4.10;;
54235;SDS011;40151;43.606;1.472;2023-05-21T13:04:59;6.57;;;3.88;;
54235;SDS011;40151;43.606;1.472;2023-05-21T13:07:29;6.50;;;3.88;;
54235;SDS011;40151;43.606;1.472;2023-05-21T13:09:55;6.32;;;4.05;;
54235;SDS011;40151;43.606;1.472;2023-05-21T13:12:22;6.30;;;3.60;;
54235;SDS011;40151;43.606;1.472;2023-05-21T13:14:50;5.85;;;4.10;;
54235;SDS011;40151;43.606;1.472;2023-05-21T13:17:17;6.28;;;4.40;;
54235;SDS011;40151;43.606;1.472;2023-05-21T13:19:55;5.50;;;4.00;;
54235;SDS011;40151;43.606;1.472;2023-05-21T13:22:33;5.82;;;3.60;;
54235;SDS011;40151;43.606;1.472;2023-05-21T13:25:01;5.13;;;4.03;;
54235;SDS011;40151;43.606;1.472;2023-05-21T13:27:27;4.90;;;3.55;;
54235;SDS011;40151;43.606;1.472;2023-05-21T13:29:52;5.07;;;3.70;;
54235;SDS011;40151;43.606;1.472;2023-05-21T13:32:18;6.05;;;3.88;;
54235;SDS011;40151;43.606;1.472;2023-05-21T13:34:43;6.65;;;4.10;;
54235;SDS011;40151;43.606;1.472;2023-05-21T13:37:09;6.85;;;4.07;;
54235;SDS011;40151;43.606;1.472;2023-05-21T13:39:34;5.60;;;4.15;;
54235;SDS011;40151;43.606;1.472;2023-05-21T13:42:00;6.32;;;4.07;;
54235;SDS011;40151;43.606;1.472;2023-05-21T13:44:25;5.65;;;3.88;;
54235;SDS011;40151;43.606;1.472;2023-05-21T13:46:51;5.22;;;3.60;;
54235;SDS011;40151;43.606;1.472;2023-05-21T13:49:16;4.72;;;3.75;;
54235;SDS011;40151;43.606;1.472;2023-05-21T13:51:42;6.28;;;3.80;;
54235;SDS011;40151;43.606;1.472;2023-05-21T13:54:07;6.15;;;3.80;;
54235;SDS011;40151;43.606;1.472;2023-05-21T13:56:33;4.88;;;3.63;;
54235;SDS011;40151;43.606;1.472;2023-05-21T13:58:59;7.00;;;3.70;;
54235;SDS011;40151;43.606;1.472;2023-05-21T14:01:25;4.93;;;3.67;;
54235;SDS011;40151;43.606;1.472;2023-05-21T14:03:50;5.72;;;3.92;;
54235;SDS011;40151;43.606;1.472;2023-05-21T14:06:16;5.30;;;3.83;;
54235;SDS011;40151;43.606;1.472;2023-05-21T14:08:41;5.47;;;3.95;;
54235;SDS011;40151;43.606;1.472;2023-05-21T14:11:07;6.65;;;4.00;;
54235;SDS011;40151;43.606;1.472;2023-05-21T14:13:32;6.20;;;3.80;;
54235;SDS011;40151;43.606;1.472;2023-05-21T14:15:57;5.22;;;3.70;;
54235;SDS011;40151;43.606;1.472;2023-05-21T14:18:23;5.22;;;3.92;;
54235;SDS011;40151;43.606;1.472;2023-05-21T14:20:48;5.93;;;3.50;;
54235;SDS011;40151;43.606;1.472;2023-05-21T14:23:14;4.85;;;3.47;;
54235;SDS011;40151;43.606;1.472;2023-05-21T14:25:40;5.50;;;3.83;;
54235;SDS011;40151;43.606;1.472;2023-05-21T14:28:06;5.53;;;4.18;;
54235;SDS011;40151;43.606;1.472;2023-05-21T14:30:31;5.90;;;3.70;;
54235;SDS011;40151;43.606;1.472;2023-05-21T14:32:57;5.95;;;3.80;;
54235;SDS011;40151;43.606;1.472;2023-05-21T14:35:22;6.05;;;3.30;;
54235;SDS011;40151;43.606;1.472;2023-05-21T14:37:47;4.88;;;3.83;;
54235;SDS011;40151;43.606;1.472;2023-05-21T14:40:13;5.25;;;3.53;;
54235;SDS011;40151;43.606;1.472;2023-05-21T14:42:38;4.72;;;3.70;;
54235;SDS011;40151;43.606;1.472;2023-05-21T14:45:04;4.93;;;3.40;;
54235;SDS011;40151;43.606;1.472;2023-05-21T14:47:30;4.68;;;3.65;;
54235;SDS011;40151;43.606;1.472;2023-05-21T14:49:55;5.03;;;3.30;;
54235;SDS011;40151;43.606;1.472;2023-05-21T14:52:21;5.00;;;3.90;;
54235;SDS011;40151;43.606;1.472;2023-05-21T14:54:46;4.68;;;3.50;;
54235;SDS011;40151;43.606;1.472;2023-05-21T14:57:11;4.25;;;3.22;;
54235;SDS011;40151;43.606;1.472;2023-05-21T14:59:37;5.80;;;3.88;;
54235;SDS011;40151;43.606;1.472;2023-05-21T15:02:02;4.60;;;3.33;;
54235;SDS011;40151;43.606;1.472;2023-05-21T15:04:28;4.82;;;3.40;;
54235;SDS011;40151;43.606;1.472;2023-05-21T15:06:53;5.45;;;3.63;;
54235;SDS011;40151;43.606;1.472;2023-05-21T15:09:19;4.97;;;3.60;;
54235;SDS011;40151;43.606;1.472;2023-05-21T15:11:44;5.05;;;3.63;;
54235;SDS011;40151;43.606;1.472;2023-05-21T15:14:10;4.43;;;3.28;;
54235;SDS011;40151;43.606;1.472;2023-05-21T15:16:36;5.10;;;3.53;;